createdAt,value
2018-02-05T00:00:46.934Z,0.00
2018-02-05T00:01:46.906Z,0.00
2018-02-05T00:02:46.886Z,0.00
2018-02-05T00:03:46.857Z,0.00
2018-02-05T00:04:46.839Z,0.00
2018-02-05T00:05:46.817Z,0.00
2018-02-05T00:06:46.795Z,0.00
2018-02-05T00:07:46.765Z,0.00
2018-02-05T00:08:46.746Z,0.00
2018-02-05T00:09:46.722Z,0.00
2018-02-05T00:10:46.693Z,0.00
2018-02-05T00:11:46.669Z,0.00
2018-02-05T00:12:46.645Z,0.00
2018-02-05T00:13:46.622Z,0.00
2018-02-05T00:14:46.600Z,0.00
2018-02-05T00:15:46.575Z,0.00
2018-02-05T00:16:46.554Z,0.00
2018-02-05T00:17:46.534Z,0.00
2018-02-05T00:18:46.504Z,0.00
2018-02-05T00:19:46.480Z,0.00
2018-02-05T00:20:46.455Z,0.00
2018-02-05T00:21:46.436Z,0.00
2018-02-05T00:22:46.414Z,0.00
2018-02-05T00:23:46.389Z,0.00
2018-02-05T00:24:46.361Z,0.00
2018-02-05T00:25:46.346Z,0.00
2018-02-05T00:26:46.317Z,0.00
2018-02-05T00:27:46.294Z,0.00
2018-02-05T00:28:46.272Z,0.00
2018-02-05T00:29:46.245Z,0.00
2018-02-05T00:30:46.217Z,0.00
2018-02-05T00:31:46.194Z,0.00
2018-02-05T00:32:46.180Z,0.00
2018-02-05T00:33:46.145Z,0.00
2018-02-05T00:34:46.126Z,0.00
2018-02-05T00:35:46.140Z,0.00
2018-02-05T00:36:46.076Z,0.00
2018-02-05T00:37:46.056Z,0.00
2018-02-05T00:38:46.036Z,0.00
2018-02-05T00:39:46.031Z,0.00
2018-02-05T00:40:45.984Z,0.00
2018-02-05T00:41:45.960Z,0.00
2018-02-05T00:42:45.946Z,0.00
2018-02-05T00:43:45.913Z,0.00
2018-02-05T00:44:45.890Z,0.00
2018-02-05T00:45:45.864Z,0.00
2018-02-05T00:46:45.842Z,0.00
2018-02-05T00:47:45.814Z,0.00
2018-02-05T00:48:45.796Z,0.00
2018-02-05T00:49:45.769Z,0.00
2018-02-05T00:50:45.744Z,0.00
2018-02-05T00:51:45.719Z,0.00
2018-02-05T00:52:45.715Z,0.00
2018-02-05T00:53:45.672Z,0.00
2018-02-05T00:54:45.648Z,0.00
2018-02-05T00:55:45.627Z,0.00
2018-02-05T00:56:45.601Z,0.00
2018-02-05T00:57:45.578Z,0.00
2018-02-05T00:58:45.556Z,0.00
2018-02-05T00:59:45.530Z,0.00
2018-02-05T01:00:45.506Z,0.00
2018-02-05T01:01:45.483Z,0.00
2018-02-05T01:02:45.459Z,0.00
2018-02-05T01:03:45.439Z,0.00
2018-02-05T01:04:45.412Z,0.00
2018-02-05T01:05:45.394Z,0.00
2018-02-05T01:06:45.364Z,0.00
2018-02-05T01:07:45.352Z,0.00
2018-02-05T01:08:45.319Z,0.00
2018-02-05T01:09:45.295Z,0.00
2018-02-05T01:10:45.279Z,0.00
2018-02-05T01:11:45.246Z,0.00
2018-02-05T01:12:45.225Z,0.00
2018-02-05T01:13:45.201Z,0.00
2018-02-05T01:14:45.174Z,0.00
2018-02-05T01:15:45.154Z,0.00
2018-02-05T01:16:45.135Z,0.00
2018-02-05T01:17:45.105Z,0.00
2018-02-05T01:18:45.086Z,0.00
2018-02-05T01:19:45.062Z,0.00
2018-02-05T01:20:45.034Z,0.00
2018-02-05T01:21:45.014Z,0.00
2018-02-05T01:22:44.985Z,0.00
2018-02-05T01:23:44.963Z,0.00
2018-02-05T01:24:44.948Z,0.00
2018-02-05T01:25:44.916Z,0.00
2018-02-05T01:26:44.896Z,0.00
2018-02-05T01:27:44.870Z,0.00
2018-02-05T01:28:44.846Z,0.00
2018-02-05T01:29:44.827Z,0.00
2018-02-05T01:30:44.795Z,0.00
2018-02-05T01:31:44.772Z,0.00
2018-02-05T01:32:44.747Z,0.00
2018-02-05T01:33:44.724Z,0.00
2018-02-05T01:34:44.705Z,0.00
2018-02-05T01:35:44.680Z,0.00
2018-02-05T01:36:44.654Z,0.00
2018-02-05T01:37:44.632Z,0.00
2018-02-05T01:38:44.605Z,0.00
2018-02-05T01:39:44.586Z,0.00
2018-02-05T01:40:44.558Z,0.00
2018-02-05T01:41:44.536Z,0.00
2018-02-05T01:42:44.510Z,0.00
2018-02-05T01:43:44.488Z,0.00
2018-02-05T01:44:44.464Z,0.00
2018-02-05T01:45:44.442Z,0.00
2018-02-05T01:46:44.417Z,0.00
2018-02-05T01:47:44.394Z,0.00
2018-02-05T01:48:44.371Z,0.00
2018-02-05T01:49:44.346Z,0.00
2018-02-05T01:50:44.323Z,0.00
2018-02-05T01:51:44.298Z,0.00
2018-02-05T01:52:44.275Z,0.00
2018-02-05T01:53:44.248Z,0.00
2018-02-05T01:54:44.228Z,0.00
2018-02-05T01:55:44.205Z,0.00
2018-02-05T01:56:44.184Z,0.00
2018-02-05T01:57:44.155Z,0.00
2018-02-05T01:58:44.136Z,0.00
2018-02-05T01:59:44.106Z,0.00
2018-02-05T02:00:44.087Z,0.00
2018-02-05T02:01:44.064Z,0.00
2018-02-05T02:02:44.036Z,0.00
2018-02-05T02:03:44.009Z,0.00
2018-02-05T02:04:43.988Z,0.00
2018-02-05T02:05:43.967Z,0.00
2018-02-05T02:06:43.941Z,0.00
2018-02-05T02:07:43.916Z,0.00
2018-02-05T02:08:43.895Z,0.00
2018-02-05T02:09:43.874Z,0.00
2018-02-05T02:10:43.845Z,0.00
2018-02-05T02:11:43.826Z,0.00
2018-02-05T02:12:43.800Z,0.00
2018-02-05T02:13:43.773Z,0.00
2018-02-05T02:14:43.751Z,0.00
2018-02-05T02:15:43.735Z,0.00
2018-02-05T02:16:43.703Z,0.00
2018-02-05T02:17:43.684Z,0.00
2018-02-05T02:18:43.655Z,0.00
2018-02-05T02:19:43.632Z,0.00
2018-02-05T02:20:43.607Z,0.00
2018-02-05T02:21:43.586Z,0.00
2018-02-05T02:22:43.557Z,0.00
2018-02-05T02:23:43.537Z,0.00
2018-02-05T02:24:43.517Z,0.00
2018-02-05T02:25:43.496Z,0.00
2018-02-05T02:26:43.465Z,0.00
2018-02-05T02:27:43.443Z,0.00
2018-02-05T02:28:43.420Z,0.00
2018-02-05T02:29:43.393Z,0.00
2018-02-05T02:30:43.372Z,0.00
2018-02-05T02:31:43.347Z,0.00
2018-02-05T02:32:43.322Z,0.00
2018-02-05T02:33:43.298Z,0.00
2018-02-05T02:34:43.276Z,0.00
2018-02-05T02:35:43.254Z,0.00
2018-02-05T02:36:43.234Z,0.00
2018-02-05T02:37:43.201Z,0.00
2018-02-05T02:38:43.180Z,0.00
2018-02-05T02:39:43.160Z,0.00
2018-02-05T02:40:43.132Z,0.00
2018-02-05T02:41:43.107Z,0.00
2018-02-05T02:42:43.086Z,0.00
2018-02-05T02:43:43.061Z,0.00
2018-02-05T02:44:43.036Z,0.00
2018-02-05T02:45:43.016Z,0.00
2018-02-05T02:46:42.989Z,0.00
2018-02-05T02:47:42.965Z,0.00
2018-02-05T02:48:42.940Z,0.00
2018-02-05T02:49:42.918Z,0.00
2018-02-05T02:50:42.895Z,0.00
2018-02-05T02:51:42.870Z,0.00
2018-02-05T02:52:42.853Z,0.00
2018-02-05T02:53:42.822Z,0.00
2018-02-05T02:54:42.802Z,0.00
2018-02-05T02:55:42.774Z,0.00
2018-02-05T02:56:42.753Z,0.00
2018-02-05T02:57:42.725Z,0.00
2018-02-05T02:58:42.703Z,0.00
2018-02-05T02:59:42.679Z,0.00
2018-02-05T03:00:42.655Z,0.00
2018-02-05T03:01:42.633Z,0.00
2018-02-05T03:02:42.610Z,0.00
2018-02-05T03:03:42.583Z,0.00
2018-02-05T03:04:42.571Z,0.00
2018-02-05T03:05:42.535Z,0.00
2018-02-05T03:06:42.512Z,0.00
2018-02-05T03:07:42.489Z,0.00
2018-02-05T03:08:42.465Z,0.00
2018-02-05T03:09:42.441Z,0.00
2018-02-05T03:10:42.415Z,0.00
2018-02-05T03:11:42.393Z,0.00
2018-02-05T03:12:42.369Z,0.00
2018-02-05T03:13:42.354Z,0.00
2018-02-05T03:14:42.321Z,0.00
2018-02-05T03:15:42.295Z,0.00
2018-02-05T03:16:42.282Z,0.00
2018-02-05T03:17:42.249Z,0.00
2018-02-05T03:18:42.225Z,0.00
2018-02-05T03:19:42.200Z,0.00
2018-02-05T03:20:42.176Z,0.00
2018-02-05T03:21:42.156Z,0.00
2018-02-05T03:22:42.131Z,0.00
2018-02-05T03:23:42.107Z,0.00
2018-02-05T03:24:42.083Z,0.00
2018-02-05T03:25:42.060Z,0.00
2018-02-05T03:26:42.035Z,0.00
2018-02-05T03:27:42.012Z,0.00
2018-02-05T03:28:41.986Z,0.00
2018-02-05T03:29:41.961Z,0.00
2018-02-05T03:30:41.947Z,0.00
2018-02-05T03:31:41.915Z,0.00
2018-02-05T03:32:41.894Z,0.00
2018-02-05T03:33:41.866Z,0.00
2018-02-05T03:34:41.847Z,0.00
2018-02-05T03:35:41.816Z,0.00
2018-02-05T03:36:41.796Z,0.00
2018-02-05T03:37:41.767Z,0.00
2018-02-05T03:38:41.742Z,0.00
2018-02-05T03:39:41.773Z,0.00
2018-02-05T03:40:41.698Z,0.00
2018-02-05T03:41:41.673Z,0.00
2018-02-05T03:42:41.654Z,0.00
2018-02-05T03:43:41.626Z,0.00
2018-02-05T03:44:41.603Z,0.00
2018-02-05T03:45:41.578Z,0.00
2018-02-05T03:46:41.551Z,0.00
2018-02-05T03:47:41.528Z,0.00
2018-02-05T03:48:41.502Z,0.00
2018-02-05T03:49:41.481Z,0.00
2018-02-05T03:50:41.454Z,0.00
2018-02-05T03:51:41.440Z,0.00
2018-02-05T03:52:41.408Z,0.00
2018-02-05T03:53:41.384Z,0.00
2018-02-05T03:54:41.360Z,0.00
2018-02-05T03:55:41.336Z,0.00
2018-02-05T03:56:41.311Z,0.00
2018-02-05T03:57:41.285Z,0.00
2018-02-05T03:58:41.262Z,0.00
2018-02-05T03:59:41.239Z,0.00
2018-02-05T04:00:41.214Z,0.00
2018-02-05T04:01:41.191Z,0.00
2018-02-05T04:02:41.175Z,0.00
2018-02-05T04:03:41.145Z,0.00
2018-02-05T04:04:41.122Z,0.00
2018-02-05T04:05:41.096Z,0.00
2018-02-05T04:06:41.074Z,0.00
2018-02-05T04:07:41.050Z,0.00
2018-02-05T04:08:41.023Z,0.00
2018-02-05T04:09:40.996Z,0.00
2018-02-05T04:10:40.975Z,0.00
2018-02-05T04:11:40.951Z,0.00
2018-02-05T04:12:40.929Z,0.00
2018-02-05T04:13:40.902Z,0.00
2018-02-05T04:14:40.884Z,0.00
2018-02-05T04:15:40.856Z,0.00
2018-02-05T04:16:40.835Z,0.00
2018-02-05T04:17:40.805Z,0.00
2018-02-05T04:18:40.780Z,0.00
2018-02-05T04:19:40.765Z,0.00
2018-02-05T04:20:40.733Z,0.00
2018-02-05T04:21:40.708Z,0.00
2018-02-05T04:22:40.686Z,0.00
2018-02-05T04:23:40.662Z,0.00
2018-02-05T04:24:40.638Z,0.00
2018-02-05T04:25:40.614Z,0.00
2018-02-05T04:26:40.590Z,0.00
2018-02-05T04:27:40.563Z,0.00
2018-02-05T04:28:40.541Z,0.00
2018-02-05T04:29:40.519Z,0.00
2018-02-05T04:30:40.498Z,0.00
2018-02-05T04:31:40.476Z,0.00
2018-02-05T04:32:40.446Z,0.00
2018-02-05T04:33:40.420Z,0.00
2018-02-05T04:34:40.395Z,0.00
2018-02-05T04:35:40.372Z,0.00
2018-02-05T04:36:40.349Z,0.00
2018-02-05T04:37:40.329Z,0.00
2018-02-05T04:38:40.304Z,0.00
2018-02-05T04:39:40.279Z,0.00
2018-02-05T04:40:40.255Z,0.00
2018-02-05T04:41:40.232Z,0.00
2018-02-05T04:42:40.201Z,0.00
2018-02-05T04:43:40.182Z,0.00
2018-02-05T04:44:40.155Z,0.00
2018-02-05T04:45:40.135Z,0.00
2018-02-05T04:46:40.106Z,0.00
2018-02-05T04:47:40.085Z,0.00
2018-02-05T04:48:40.066Z,0.00
2018-02-05T04:49:40.034Z,0.00
2018-02-05T04:50:40.020Z,0.00
2018-02-05T04:51:39.988Z,0.00
2018-02-05T04:52:39.965Z,0.00
2018-02-05T04:53:39.936Z,0.00
2018-02-05T04:54:39.914Z,0.00
2018-02-05T04:55:39.890Z,0.00
2018-02-05T04:56:39.869Z,0.00
2018-02-05T04:57:39.844Z,0.00
2018-02-05T04:58:39.818Z,0.00
2018-02-05T04:59:39.792Z,0.00
2018-02-05T05:00:39.771Z,0.00
2018-02-05T05:01:39.750Z,0.00
2018-02-05T05:02:39.723Z,0.00
2018-02-05T05:03:39.701Z,0.00
2018-02-05T05:04:39.676Z,0.00
2018-02-05T05:05:39.653Z,0.00
2018-02-05T05:06:39.625Z,0.00
2018-02-05T05:07:39.604Z,0.00
2018-02-05T05:08:39.579Z,0.00
2018-02-05T05:09:39.554Z,0.00
2018-02-05T05:10:39.533Z,0.00
2018-02-05T05:11:39.509Z,0.00
2018-02-05T05:12:39.485Z,0.00
2018-02-05T05:13:39.461Z,0.00
2018-02-05T05:14:39.439Z,0.00
2018-02-05T05:15:39.414Z,0.00
2018-02-05T05:16:39.392Z,0.00
2018-02-05T05:17:39.366Z,0.00
2018-02-05T05:18:39.342Z,0.00
2018-02-05T05:19:39.321Z,0.00
2018-02-05T05:20:39.298Z,0.00
2018-02-05T05:21:39.273Z,0.00
2018-02-05T05:22:39.245Z,0.00
2018-02-05T05:23:39.223Z,0.00
2018-02-05T05:24:39.199Z,0.00
2018-02-05T05:25:39.177Z,0.00
2018-02-05T05:26:39.154Z,0.00
2018-02-05T05:27:39.136Z,0.00
2018-02-05T05:28:39.102Z,0.00
2018-02-05T05:29:39.080Z,0.00
2018-02-05T05:30:39.062Z,0.00
2018-02-05T05:31:39.033Z,0.00
2018-02-05T05:32:39.007Z,0.00
2018-02-05T05:33:38.985Z,0.00
2018-02-05T05:34:38.961Z,0.00
2018-02-05T05:35:38.936Z,0.00
2018-02-05T05:36:38.913Z,0.00
2018-02-05T05:37:38.885Z,0.00
2018-02-05T05:38:38.866Z,0.00
2018-02-05T05:39:38.841Z,0.00
2018-02-05T05:40:38.814Z,0.00
2018-02-05T05:41:38.796Z,0.00
2018-02-05T05:42:38.771Z,0.00
2018-02-05T05:43:38.744Z,0.00
2018-02-05T05:44:38.730Z,0.00
2018-02-05T05:45:38.695Z,0.00
2018-02-05T05:46:38.675Z,0.00
2018-02-05T05:47:38.652Z,0.00
2018-02-05T05:48:38.624Z,0.00
2018-02-05T05:49:38.603Z,0.00
2018-02-05T05:50:38.580Z,0.00
2018-02-05T05:51:38.554Z,0.00
2018-02-05T05:52:38.527Z,0.00
2018-02-05T05:53:38.505Z,0.00
2018-02-05T05:54:38.482Z,0.00
2018-02-05T05:55:38.460Z,0.00
2018-02-05T05:56:38.434Z,0.00
2018-02-05T05:57:38.412Z,0.00
2018-02-05T05:58:38.388Z,0.00
2018-02-05T05:59:38.365Z,0.00
2018-02-05T06:00:38.340Z,0.00
2018-02-05T06:01:38.326Z,0.00
2018-02-05T06:02:38.292Z,0.00
2018-02-05T06:03:38.267Z,0.00
2018-02-05T06:04:38.245Z,0.00
2018-02-05T06:05:38.218Z,0.00
2018-02-05T06:06:38.196Z,0.00
2018-02-05T06:07:38.189Z,0.00
2018-02-05T06:08:38.155Z,0.00
2018-02-05T06:09:38.125Z,0.00
2018-02-05T06:10:38.106Z,0.00
2018-02-05T06:11:38.076Z,0.00
2018-02-05T06:12:38.055Z,0.00
2018-02-05T06:13:38.031Z,0.00
2018-02-05T06:14:38.005Z,0.00
2018-02-05T06:15:37.983Z,0.00
2018-02-05T06:16:37.957Z,0.00
2018-02-05T06:17:37.936Z,0.00
2018-02-05T06:18:37.916Z,0.00
2018-02-05T06:19:37.884Z,0.00
2018-02-05T06:20:37.865Z,0.00
2018-02-05T06:21:37.838Z,0.00
2018-02-05T06:22:37.815Z,0.00
2018-02-05T06:23:37.790Z,0.00
2018-02-05T06:24:37.769Z,0.00
2018-02-05T06:25:37.742Z,0.00
2018-02-05T06:26:37.723Z,0.00
2018-02-05T06:27:37.696Z,0.00
2018-02-05T06:28:37.670Z,0.00
2018-02-05T06:29:37.649Z,0.00
2018-02-05T06:30:37.620Z,0.00
2018-02-05T06:31:37.603Z,0.00
2018-02-05T06:32:37.574Z,0.00
2018-02-05T06:33:37.554Z,0.00
2018-02-05T06:34:37.531Z,0.00
2018-02-05T06:35:37.506Z,0.00
2018-02-05T06:36:37.480Z,0.00
2018-02-05T06:37:37.459Z,0.00
2018-02-05T06:38:37.432Z,0.00
2018-02-05T06:39:37.411Z,0.00
2018-02-05T06:40:37.388Z,0.00
2018-02-05T06:41:37.367Z,0.00
2018-02-05T06:42:37.340Z,0.00
2018-02-05T06:43:37.316Z,0.00
2018-02-05T06:44:37.298Z,0.00
2018-02-05T06:45:37.275Z,0.00
2018-02-05T06:46:37.244Z,0.00
2018-02-05T06:47:37.222Z,0.00
2018-02-05T06:48:37.204Z,0.00
2018-02-05T06:49:37.172Z,0.00
2018-02-05T06:50:37.155Z,0.00
2018-02-05T06:51:37.126Z,0.00
2018-02-05T06:52:37.103Z,0.00
2018-02-05T06:53:37.078Z,0.00
2018-02-05T06:54:37.054Z,0.00
2018-02-05T06:55:37.038Z,0.00
2018-02-05T06:56:37.007Z,0.00
2018-02-05T06:57:36.982Z,0.00
2018-02-05T06:58:36.957Z,0.00
2018-02-05T06:59:36.937Z,0.00
2018-02-05T07:00:36.910Z,0.00
2018-02-05T07:01:36.889Z,0.00
2018-02-05T07:02:36.866Z,0.00
2018-02-05T07:03:36.839Z,0.00
2018-02-05T07:04:36.815Z,0.00
2018-02-05T07:05:36.795Z,0.00
2018-02-05T07:06:36.768Z,0.00
2018-02-05T07:07:36.756Z,0.00
2018-02-05T07:08:36.726Z,0.00
2018-02-05T07:09:36.697Z,0.00
2018-02-05T07:10:36.676Z,0.00
2018-02-05T07:11:36.649Z,0.00
2018-02-05T07:12:36.630Z,0.00
2018-02-05T07:13:36.604Z,0.00
2018-02-05T07:14:36.584Z,0.00
2018-02-05T07:15:36.560Z,0.00
2018-02-05T07:16:36.540Z,0.00
2018-02-05T07:17:36.508Z,0.00
2018-02-05T07:18:36.484Z,0.00
2018-02-05T07:19:36.463Z,0.00
2018-02-05T07:20:36.443Z,0.00
2018-02-05T07:21:36.414Z,0.00
2018-02-05T07:22:36.395Z,0.00
2018-02-05T07:23:36.371Z,0.00
2018-02-05T07:24:36.346Z,0.00
2018-02-05T07:25:36.318Z,0.00
2018-02-05T07:26:36.296Z,0.00
2018-02-05T07:27:36.273Z,0.00
2018-02-05T07:28:36.254Z,0.00
2018-02-05T07:29:36.222Z,0.00
2018-02-05T07:30:36.205Z,0.00
2018-02-05T07:31:36.176Z,0.00
2018-02-05T07:32:36.154Z,0.00
2018-02-05T07:33:36.125Z,0.00
2018-02-05T07:34:36.109Z,0.00
2018-02-05T07:35:36.084Z,0.00
2018-02-05T07:36:36.057Z,0.00
2018-02-05T07:37:36.034Z,0.00
2018-02-05T07:38:36.014Z,0.00
2018-02-05T07:39:35.986Z,0.00
2018-02-05T07:40:35.962Z,0.00
2018-02-05T07:41:35.941Z,0.00
2018-02-05T07:42:35.917Z,0.00
2018-02-05T07:43:35.893Z,0.00
2018-02-05T07:44:35.869Z,0.00
2018-02-05T07:45:35.843Z,0.00
2018-02-05T07:46:35.823Z,0.00
2018-02-05T07:47:35.795Z,0.00
2018-02-05T07:48:35.775Z,0.00
2018-02-05T07:49:35.750Z,0.00
2018-02-05T07:50:35.724Z,0.00
2018-02-05T07:51:35.705Z,0.00
2018-02-05T07:52:35.680Z,0.00
2018-02-05T07:53:35.656Z,0.00
2018-02-05T07:54:35.632Z,0.00
2018-02-05T07:55:35.609Z,0.00
2018-02-05T07:56:35.583Z,0.00
2018-02-05T07:57:35.564Z,0.00
2018-02-05T07:58:35.535Z,0.00
2018-02-05T07:59:35.515Z,0.00
2018-02-05T08:00:35.488Z,0.00
2018-02-05T08:01:35.465Z,0.00
2018-02-05T08:02:35.440Z,0.00
2018-02-05T08:03:35.418Z,0.00
2018-02-05T08:04:35.396Z,0.00
2018-02-05T08:05:35.373Z,0.00
2018-02-05T08:06:35.348Z,0.00
2018-02-05T08:07:35.329Z,0.00
2018-02-05T08:08:35.305Z,0.00
2018-02-05T08:09:35.284Z,0.00
2018-02-05T08:10:35.253Z,0.00
2018-02-05T08:11:35.235Z,0.00
2018-02-05T08:12:35.206Z,0.00
2018-02-05T08:13:35.185Z,0.00
2018-02-05T08:14:35.160Z,0.00
2018-02-05T08:15:35.149Z,0.00
2018-02-05T08:16:35.115Z,0.00
2018-02-05T08:17:35.091Z,5.63
2018-02-05T08:18:35.064Z,5.63
2018-02-05T08:19:35.058Z,5.63
2018-02-05T08:20:35.019Z,5.63
2018-02-05T08:21:34.991Z,5.63
2018-02-05T08:22:34.973Z,5.63
2018-02-05T08:23:34.946Z,5.63
2018-02-05T08:24:34.927Z,5.63
2018-02-05T08:25:34.902Z,5.63
2018-02-05T08:26:34.876Z,5.63
2018-02-05T08:27:34.856Z,5.63
2018-02-05T08:28:34.829Z,5.63
2018-02-05T08:29:34.805Z,5.63
2018-02-05T08:30:34.781Z,5.63
2018-02-05T08:31:34.758Z,5.63
2018-02-05T08:32:34.732Z,5.63
2018-02-05T08:33:34.708Z,5.63
2018-02-05T08:34:34.725Z,5.63
2018-02-05T08:35:34.661Z,5.63
2018-02-05T08:36:34.640Z,5.63
2018-02-05T08:37:34.616Z,5.63
2018-02-05T08:38:34.588Z,5.63
2018-02-05T08:39:34.566Z,5.63
2018-02-05T08:40:34.548Z,5.63
2018-02-05T08:41:34.521Z,5.63
2018-02-05T08:42:34.496Z,5.63
2018-02-05T08:43:34.471Z,11.25
2018-02-05T08:44:34.451Z,11.25
2018-02-05T08:45:34.424Z,11.25
2018-02-05T08:46:34.407Z,11.25
2018-02-05T08:47:34.379Z,11.25
2018-02-05T08:48:34.354Z,11.25
2018-02-05T08:49:34.328Z,11.25
2018-02-05T08:50:34.306Z,5.63
2018-02-05T08:51:34.282Z,5.63
2018-02-05T08:52:34.257Z,5.63
2018-02-05T08:53:34.232Z,5.63
2018-02-05T08:54:34.215Z,5.63
2018-02-05T08:55:34.186Z,5.63
2018-02-05T08:56:34.165Z,11.25
2018-02-05T08:57:34.138Z,11.25
2018-02-05T08:58:34.115Z,11.25
2018-02-05T08:59:34.096Z,11.25
2018-02-05T09:00:34.069Z,11.25
2018-02-05T09:01:34.046Z,11.25
2018-02-05T09:02:34.020Z,11.25
2018-02-05T09:03:34.004Z,11.25
2018-02-05T09:04:33.980Z,11.25
2018-02-05T09:05:33.950Z,11.25
2018-02-05T09:06:33.932Z,11.25
2018-02-05T09:07:33.915Z,11.25
2018-02-05T09:08:33.886Z,11.25
2018-02-05T09:09:33.858Z,11.25
2018-02-05T09:10:33.838Z,11.25
2018-02-05T09:11:33.812Z,11.25
2018-02-05T09:12:33.787Z,11.25
2018-02-05T09:13:33.769Z,11.25
2018-02-05T09:14:33.741Z,11.25
2018-02-05T09:15:33.715Z,5.63
2018-02-05T09:16:33.693Z,5.63
2018-02-05T09:17:33.671Z,5.63
2018-02-05T09:18:33.642Z,5.63
2018-02-05T09:19:33.622Z,5.63
2018-02-05T09:20:33.606Z,11.25
2018-02-05T09:21:33.572Z,11.25
2018-02-05T09:22:33.555Z,11.25
2018-02-05T09:23:33.532Z,11.25
2018-02-05T09:24:33.504Z,11.25
2018-02-05T09:25:33.484Z,11.25
2018-02-05T09:26:33.464Z,11.25
2018-02-05T09:27:33.432Z,5.63
2018-02-05T09:28:33.408Z,5.63
2018-02-05T09:29:33.392Z,5.63
2018-02-05T09:30:33.360Z,5.63
2018-02-05T09:31:33.335Z,5.63
2018-02-05T09:32:33.321Z,5.63
2018-02-05T09:33:33.291Z,5.63
2018-02-05T09:34:33.265Z,5.63
2018-02-05T09:35:33.241Z,5.63
2018-02-05T09:36:33.225Z,11.25
2018-02-05T09:37:33.197Z,11.25
2018-02-05T09:38:33.173Z,11.25
2018-02-05T09:39:33.156Z,11.25
2018-02-05T09:40:33.124Z,16.88
2018-02-05T09:41:33.106Z,16.88
2018-02-05T09:42:33.084Z,16.88
2018-02-05T09:43:33.055Z,11.25
2018-02-05T09:44:33.032Z,11.25
2018-02-05T09:45:33.005Z,16.88
2018-02-05T09:46:32.983Z,16.88
2018-02-05T09:47:32.963Z,16.88
2018-02-05T09:48:32.937Z,11.25
2018-02-05T09:49:32.915Z,11.25
2018-02-05T09:50:32.895Z,11.25
2018-02-05T09:51:32.865Z,11.25
2018-02-05T09:52:32.846Z,11.25
2018-02-05T09:53:32.822Z,11.25
2018-02-05T09:54:32.799Z,11.25
2018-02-05T09:55:32.774Z,5.63
2018-02-05T09:56:32.748Z,5.63
2018-02-05T09:57:32.724Z,5.63
2018-02-05T09:58:32.700Z,5.63
2018-02-05T09:59:32.677Z,5.63
2018-02-05T10:00:32.657Z,11.25
2018-02-05T10:01:32.628Z,11.25
2018-02-05T10:02:32.612Z,11.25
2018-02-05T10:03:32.590Z,11.25
2018-02-05T10:04:32.570Z,11.25
2018-02-05T10:05:32.538Z,11.25
2018-02-05T10:06:32.522Z,11.25
2018-02-05T10:07:32.501Z,11.25
2018-02-05T10:08:32.468Z,16.88
2018-02-05T10:09:32.450Z,16.88
2018-02-05T10:10:32.423Z,11.25
2018-02-05T10:11:32.398Z,11.25
2018-02-05T10:12:32.377Z,11.25
2018-02-05T10:13:32.352Z,11.25
2018-02-05T10:14:32.326Z,16.88
2018-02-05T10:15:32.302Z,16.88
2018-02-05T10:16:32.278Z,16.88
2018-02-05T10:17:32.257Z,16.88
2018-02-05T10:18:32.231Z,16.88
2018-02-05T10:19:32.212Z,16.88
2018-02-05T10:20:32.185Z,22.50
2018-02-05T10:21:32.164Z,22.50
2018-02-05T10:22:32.145Z,16.88
2018-02-05T10:23:32.112Z,16.88
2018-02-05T10:24:32.091Z,22.50
2018-02-05T10:25:32.072Z,28.13
2018-02-05T10:26:32.044Z,16.88
2018-02-05T10:27:32.024Z,16.88
2018-02-05T10:28:32.002Z,16.88
2018-02-05T10:29:31.978Z,16.88
2018-02-05T10:30:31.957Z,16.88
2018-02-05T10:31:31.934Z,16.88
2018-02-05T10:32:31.909Z,11.25
2018-02-05T10:33:31.886Z,11.25
2018-02-05T10:34:31.858Z,11.25
2018-02-05T10:35:31.835Z,11.25
2018-02-05T10:36:31.811Z,16.88
2018-02-05T10:37:31.792Z,16.88
2018-02-05T10:38:31.769Z,16.88
2018-02-05T10:39:31.743Z,16.88
2018-02-05T10:40:31.720Z,16.88
2018-02-05T10:41:31.695Z,11.25
2018-02-05T10:42:31.676Z,11.25
2018-02-05T10:43:31.650Z,16.88
2018-02-05T10:44:31.626Z,16.88
2018-02-05T10:45:31.603Z,16.88
2018-02-05T10:46:31.580Z,16.88
2018-02-05T10:47:31.557Z,16.88
2018-02-05T10:48:31.542Z,16.88
2018-02-05T10:49:31.510Z,16.88
2018-02-05T10:50:31.487Z,16.88
2018-02-05T10:51:31.462Z,16.88
2018-02-05T10:52:31.443Z,16.88
2018-02-05T10:53:31.414Z,16.88
2018-02-05T10:54:31.393Z,16.88
2018-02-05T10:55:31.375Z,16.88
2018-02-05T10:56:31.345Z,16.88
2018-02-05T10:57:31.323Z,16.88
2018-02-05T10:58:31.301Z,16.88
2018-02-05T10:59:31.277Z,16.88
2018-02-05T11:00:31.254Z,16.88
2018-02-05T11:01:31.235Z,16.88
2018-02-05T11:02:31.208Z,11.25
2018-02-05T11:03:31.184Z,11.25
2018-02-05T11:04:31.160Z,11.25
2018-02-05T11:05:31.139Z,11.25
2018-02-05T11:06:31.115Z,11.25
2018-02-05T11:07:31.094Z,11.25
2018-02-05T11:08:31.068Z,11.25
2018-02-05T11:09:31.045Z,11.25
2018-02-05T11:10:31.025Z,11.25
2018-02-05T11:11:31.001Z,11.25
2018-02-05T11:12:30.976Z,11.25
2018-02-05T11:13:30.953Z,11.25
2018-02-05T11:14:30.936Z,11.25
2018-02-05T11:15:30.907Z,11.25
2018-02-05T11:16:30.884Z,11.25
2018-02-05T11:17:30.859Z,11.25
2018-02-05T11:18:30.835Z,11.25
2018-02-05T11:19:30.815Z,11.25
2018-02-05T11:20:30.794Z,11.25
2018-02-05T11:21:30.765Z,11.25
2018-02-05T11:22:30.746Z,11.25
2018-02-05T11:23:30.723Z,16.88
2018-02-05T11:24:30.699Z,16.88
2018-02-05T11:25:30.671Z,16.88
2018-02-05T11:26:30.651Z,16.88
2018-02-05T11:27:30.635Z,16.88
2018-02-05T11:28:30.603Z,16.88
2018-02-05T11:29:30.579Z,16.88
2018-02-05T11:30:30.560Z,16.88
2018-02-05T11:31:30.535Z,16.88
2018-02-05T11:32:30.514Z,16.88
2018-02-05T11:33:30.491Z,16.88
2018-02-05T11:34:30.467Z,16.88
2018-02-05T11:35:30.443Z,16.88
2018-02-05T11:36:30.423Z,11.25
2018-02-05T11:37:30.397Z,16.88
2018-02-05T11:38:30.375Z,16.88
2018-02-05T11:39:30.349Z,16.88
2018-02-05T11:40:30.331Z,16.88
2018-02-05T11:41:30.301Z,16.88
2018-02-05T11:42:30.291Z,16.88
2018-02-05T11:43:30.264Z,16.88
2018-02-05T11:44:30.236Z,11.25
2018-02-05T11:45:30.216Z,11.25
2018-02-05T11:46:30.190Z,11.25
2018-02-05T11:47:30.166Z,11.25
2018-02-05T11:48:30.145Z,11.25
2018-02-05T11:49:30.118Z,11.25
2018-02-05T11:50:30.098Z,11.25
2018-02-05T11:51:30.077Z,11.25
2018-02-05T11:52:30.055Z,11.25
2018-02-05T11:53:30.028Z,11.25
2018-02-05T11:54:30.006Z,11.25
2018-02-05T11:55:29.981Z,11.25
2018-02-05T11:56:29.966Z,11.25
2018-02-05T11:57:29.935Z,16.88
2018-02-05T11:58:29.912Z,16.88
2018-02-05T11:59:29.889Z,16.88
2018-02-05T12:00:29.865Z,16.88
2018-02-05T12:01:29.844Z,16.88
2018-02-05T12:02:29.825Z,16.88
2018-02-05T12:03:29.795Z,16.88
2018-02-05T12:04:29.775Z,16.88
2018-02-05T12:05:29.759Z,16.88
2018-02-05T12:06:29.727Z,22.50
2018-02-05T12:07:29.708Z,16.88
2018-02-05T12:08:29.682Z,16.88
2018-02-05T12:09:29.660Z,16.88
2018-02-05T12:10:29.642Z,16.88
2018-02-05T12:11:29.614Z,16.88
2018-02-05T12:12:29.591Z,16.88
2018-02-05T12:13:29.567Z,16.88
2018-02-05T12:14:29.546Z,16.88
2018-02-05T12:15:29.521Z,16.88
2018-02-05T12:16:29.503Z,11.25
2018-02-05T12:17:29.483Z,11.25
2018-02-05T12:18:29.451Z,11.25
2018-02-05T12:19:29.428Z,11.25
2018-02-05T12:20:29.407Z,5.63
2018-02-05T12:21:29.384Z,5.63
2018-02-05T12:22:29.365Z,5.63
2018-02-05T12:23:29.338Z,5.63
2018-02-05T12:24:29.316Z,5.63
2018-02-05T12:25:29.294Z,5.63
2018-02-05T12:26:29.269Z,5.63
2018-02-05T12:27:29.248Z,5.63
2018-02-05T12:28:29.238Z,5.63
2018-02-05T12:29:29.197Z,5.63
2018-02-05T12:30:29.173Z,5.63
2018-02-05T12:31:29.153Z,5.63
2018-02-05T12:32:29.137Z,5.63
2018-02-05T12:33:29.110Z,5.63
2018-02-05T12:34:29.083Z,5.63
2018-02-05T12:35:29.076Z,5.63
2018-02-05T12:36:29.042Z,5.63
2018-02-05T12:37:29.019Z,5.63
2018-02-05T12:38:28.996Z,11.25
2018-02-05T12:39:28.968Z,11.25
2018-02-05T12:40:28.952Z,11.25
2018-02-05T12:41:28.924Z,11.25
2018-02-05T12:42:28.894Z,11.25
2018-02-05T12:43:28.876Z,11.25
2018-02-05T12:44:28.856Z,16.88
2018-02-05T12:45:28.833Z,16.88
2018-02-05T12:46:28.808Z,16.88
2018-02-05T12:47:28.820Z,16.88
2018-02-05T12:48:28.767Z,16.88
2018-02-05T12:49:28.736Z,16.88
2018-02-05T12:50:28.716Z,16.88
2018-02-05T12:51:28.692Z,16.88
2018-02-05T12:52:28.666Z,16.88
2018-02-05T12:53:28.650Z,16.88
2018-02-05T12:54:28.620Z,16.88
2018-02-05T12:55:28.594Z,16.88
2018-02-05T12:56:28.590Z,22.50
2018-02-05T12:57:28.549Z,28.13
2018-02-05T12:58:28.534Z,33.75
2018-02-05T12:59:28.510Z,33.75
2018-02-05T13:00:28.484Z,33.75
2018-02-05T13:01:28.458Z,39.38
2018-02-05T13:02:28.432Z,33.75
2018-02-05T13:03:28.410Z,33.75
2018-02-05T13:04:28.388Z,33.75
2018-02-05T13:05:28.372Z,33.75
2018-02-05T13:06:28.345Z,16.88
2018-02-05T13:07:28.320Z,22.50
2018-02-05T13:08:28.296Z,11.25
2018-02-05T13:09:28.277Z,11.25
2018-02-05T13:10:28.253Z,11.25